Overview Statistics Trail Chart Weather Telemetry Raw packets
 

This is the latest recevied weather packets stored in our database for station/object KD2FKI. If no packets are shown the sender has not sent any weather packets the latest 10 day(s).

<< 2 3 4 5 6 7 8 >>
Time Temp. Humidity Pressure Rain* Wind** Luminosity Snow
1788364523 35.56° C 53% - 0 mm - - -
1788363938 35° C 54% - 0 mm - - -
1788363334 36.11° C 50% - 0 mm - - -
1788362733 34.44° C 53% - 0 mm - - -
1788362132 32.78° C 58% - 0 mm - - -
1788361527 31.67° C 62% - 0 mm - - -
1788360924 31.11° C 64% - 0 mm - - -
1788360322 30.56° C 65% - 0 mm - - -
1788359720 30° C 66% - 0 mm - - -
1788359136 29.44° C 68% - 0 mm - - -
1788358534 28.89° C 70% - 0 mm - - -
1788357931 28.89° C 71% - 0 mm - - -
1788357329 28.33° C 73% - 0 mm - - -
1788356727 27.78° C 74% - 0 mm - - -
1788356125 27.22° C 78% - 0 mm - - -
1788355523 26.67° C 79% - 0 mm - - -
1788354920 26.11° C 81% - 0 mm - - -
1788354336 26.11° C 82% - 0 mm - - -
1788353734 25.56° C 83% - 0 mm - - -
1788353132 25° C 84% - 0 mm - - -
1788352530 25° C 84% - 0 mm - - -
1788351927 24.44° C 86% - 0 mm - - -
1788351326 23.89° C 86% - 0 mm - - -
1788350724 23.33° C 86% - 0 mm - - -
1788350123 23.33° C 87% - 0 mm - - -

* Rain latest hour (hover to see other rain measurements)
** Current wind speed in m/s (hover to see current wind gust speed)